Litchville, North Dakota
Current Conditions -  °F | °C
As of 1:35 AM on Sunday 23 Nov 2014 (Local Time) from KBAC Reporting Station
Clear Clear  
Wind Chill: 21°   Ceiling: Unl
Heat Index: 30°   Visibility: 10mi
Dew Point: 30°   Wind: 12mph
Humidity: 100%   Direction: 230°SW
Pressure: 29.36"   Gusts: NA
Location:  46.65°N, 98.19°W
Report Text: KBAC 230735Z AUTO 23010KT 10SM CLR M01/M01 A2936 RMK AO2
Loading
Personal Weather Stations






























Interactive Weather Map New forecast layout! Learn more

10-Day Weather Forecast

Advertisements
Track Severe Weather on mobile